createdAt,value
2019-01-18T00:00:35.095Z,5.47
2019-01-18T00:05:37.583Z,5.42
2019-01-18T00:10:40.051Z,5.45
2019-01-18T00:15:42.515Z,5.43
2019-01-18T00:20:44.997Z,5.45
2019-01-18T00:25:47.449Z,5.39
2019-01-18T00:30:49.908Z,5.35
2019-01-18T00:35:52.357Z,5.39
2019-01-18T00:40:54.801Z,5.42
2019-01-18T00:45:57.247Z,5.42
2019-01-18T00:50:59.710Z,5.42
2019-01-18T00:56:02.183Z,5.40
2019-01-18T01:01:04.626Z,5.46
2019-01-18T01:06:07.070Z,5.47
2019-01-18T01:11:09.559Z,5.47
2019-01-18T01:16:12.023Z,5.52
2019-01-18T01:21:14.480Z,5.52
2019-01-18T01:26:16.923Z,5.49
2019-01-18T01:31:19.390Z,5.51
2019-01-18T01:36:21.838Z,5.47
2019-01-18T01:41:24.287Z,5.36
2019-01-18T01:46:26.739Z,5.36
2019-01-18T01:51:29.193Z,5.34
2019-01-18T01:56:31.641Z,5.42
2019-01-18T02:01:34.089Z,5.48
2019-01-18T02:06:36.540Z,5.47
2019-01-18T02:11:39.002Z,5.45
2019-01-18T02:16:41.478Z,5.41
2019-01-18T02:21:43.931Z,5.34
2019-01-18T02:26:46.390Z,5.27
2019-01-18T02:31:48.852Z,5.27
2019-01-18T02:36:51.293Z,5.27
2019-01-18T02:41:53.731Z,5.26
2019-01-18T02:46:56.244Z,5.20
2019-01-18T02:51:58.691Z,5.22
2019-01-18T02:57:01.145Z,5.15
2019-01-18T03:02:03.622Z,5.16
2019-01-18T03:07:06.080Z,5.07
2019-01-18T03:12:08.525Z,5.10
2019-01-18T03:17:10.969Z,5.10
2019-01-18T03:22:13.423Z,5.13
2019-01-18T03:27:15.890Z,5.09
2019-01-18T03:32:18.340Z,5.11
2019-01-18T03:37:20.781Z,5.09
2019-01-18T03:42:23.272Z,5.06
2019-01-18T03:47:25.897Z,5.09
2019-01-18T03:52:28.373Z,5.10
2019-01-18T03:57:30.819Z,5.07
2019-01-18T04:02:33.284Z,5.08
2019-01-18T04:07:35.759Z,5.05
2019-01-18T04:12:38.220Z,5.03
2019-01-18T04:17:40.678Z,5.01
2019-01-18T04:22:43.154Z,5.03
2019-01-18T04:27:45.617Z,5.01
2019-01-18T04:32:48.059Z,5.01
2019-01-18T04:37:50.509Z,5.02
2019-01-18T04:42:52.958Z,4.98
2019-01-18T04:47:55.417Z,4.97
2019-01-18T04:52:57.885Z,4.91
2019-01-18T04:58:00.360Z,4.93
2019-01-18T05:03:02.825Z,4.92
2019-01-18T05:08:05.265Z,4.93
2019-01-18T05:13:07.737Z,4.91
2019-01-18T05:18:10.208Z,4.89
2019-01-18T05:23:12.667Z,4.93
2019-01-18T05:28:15.141Z,4.96
2019-01-18T05:33:17.591Z,4.92
2019-01-18T05:38:20.109Z,4.90
2019-01-18T05:43:22.568Z,4.90
2019-01-18T05:48:25.025Z,4.82
2019-01-18T05:53:27.488Z,4.86
2019-01-18T05:58:31.218Z,4.87
2019-01-18T06:03:32.394Z,4.86
2019-01-18T06:08:34.850Z,4.77
2019-01-18T06:13:37.307Z,4.80
2019-01-18T06:18:39.760Z,4.78
2019-01-18T06:23:42.211Z,4.77
2019-01-18T06:28:44.659Z,4.78
2019-01-18T06:33:47.155Z,4.80
2019-01-18T06:38:49.608Z,4.86
2019-01-18T06:43:52.874Z,4.88
2019-01-18T06:48:54.522Z,4.83
2019-01-18T06:53:56.992Z,4.78
2019-01-18T06:58:59.459Z,4.72
2019-01-18T07:04:02.005Z,4.70
2019-01-18T07:09:04.460Z,4.71
2019-01-18T07:14:06.925Z,4.81
2019-01-18T07:19:09.394Z,4.83
2019-01-18T07:24:11.861Z,4.87
2019-01-18T07:29:14.339Z,4.99
2019-01-18T07:34:16.799Z,4.98
2019-01-18T07:39:22.450Z,5.13
2019-01-18T07:44:21.742Z,4.79
2019-01-18T07:49:24.208Z,4.69
2019-01-18T07:54:26.640Z,4.43
2019-01-18T07:59:29.110Z,4.55
2019-01-18T08:04:31.579Z,4.59
2019-01-18T08:09:34.148Z,5.00
2019-01-18T08:14:36.627Z,4.68
2019-01-18T08:19:39.119Z,4.71
2019-01-18T08:24:41.551Z,4.66
2019-01-18T08:29:44.005Z,4.48
2019-01-18T08:34:46.464Z,4.31
2019-01-18T08:39:48.911Z,4.61
2019-01-18T08:44:51.370Z,5.07
2019-01-18T08:49:53.851Z,4.98
2019-01-18T08:54:56.329Z,5.13
2019-01-18T08:59:58.788Z,5.63
2019-01-18T09:05:01.239Z,5.99
2019-01-18T09:10:03.843Z,6.74
2019-01-18T09:15:06.290Z,7.64
2019-01-18T09:20:17.730Z,8.17
2019-01-18T09:25:20.183Z,8.12
2019-01-18T09:30:25.314Z,8.53
2019-01-18T09:35:27.788Z,8.88
2019-01-18T09:40:30.254Z,8.94
2019-01-18T09:45:32.691Z,8.73
2019-01-18T09:50:35.164Z,8.64
2019-01-18T09:55:37.635Z,8.50
2019-01-18T10:00:40.096Z,8.27
2019-01-18T10:05:42.561Z,7.54
2019-01-18T10:10:45.060Z,7.16
2019-01-18T10:15:47.489Z,7.12
2019-01-18T10:20:49.963Z,6.87
2019-01-18T10:25:52.414Z,6.89
2019-01-18T10:30:54.914Z,7.23
2019-01-18T10:35:57.382Z,7.71
2019-01-18T10:40:59.836Z,7.78
2019-01-18T10:46:02.300Z,7.92
2019-01-18T10:51:04.753Z,7.87
2019-01-18T10:56:07.204Z,7.20
2019-01-18T11:01:09.678Z,6.68
2019-01-18T11:06:12.120Z,6.55
2019-01-18T11:11:14.574Z,6.45
2019-01-18T11:16:17.015Z,6.29
2019-01-18T11:21:19.494Z,6.20
2019-01-18T11:26:21.953Z,6.49
2019-01-18T11:31:24.478Z,6.58
2019-01-18T11:36:26.896Z,6.79
2019-01-18T11:41:29.381Z,6.97
2019-01-18T11:46:31.847Z,7.25
2019-01-18T11:51:34.305Z,7.69
2019-01-18T11:56:36.747Z,7.72
2019-01-18T12:01:39.207Z,7.43
2019-01-18T12:06:41.669Z,7.32
2019-01-18T12:11:44.134Z,7.43
2019-01-18T12:16:46.613Z,7.26
2019-01-18T12:21:49.056Z,7.14
2019-01-18T12:26:51.516Z,7.16
2019-01-18T12:31:53.979Z,6.91
2019-01-18T12:36:58.909Z,6.91
2019-01-18T12:41:58.911Z,6.84
2019-01-18T12:47:01.375Z,6.67
2019-01-18T12:52:03.884Z,6.69
2019-01-18T12:57:06.330Z,6.73
2019-01-18T13:02:08.787Z,6.77
2019-01-18T13:07:11.242Z,6.82
2019-01-18T13:12:13.709Z,6.84
2019-01-18T13:17:16.172Z,7.23
2019-01-18T13:22:18.643Z,7.06
2019-01-18T13:27:21.108Z,7.01
2019-01-18T13:32:23.670Z,7.00
2019-01-18T13:37:26.123Z,6.84
2019-01-18T13:42:28.634Z,6.92
2019-01-18T13:47:31.085Z,6.65
2019-01-18T13:52:33.626Z,6.63
2019-01-18T13:57:36.138Z,6.43
2019-01-18T14:02:40.624Z,6.46
2019-01-18T14:07:41.057Z,6.31
2019-01-18T14:12:43.621Z,6.11
2019-01-18T14:17:46.095Z,6.07
2019-01-18T14:22:48.553Z,5.88
2019-01-18T14:27:51.005Z,5.80
2019-01-18T14:32:55.706Z,5.76
2019-01-18T14:37:55.929Z,5.55
2019-01-18T14:42:58.392Z,5.39
2019-01-18T14:48:00.885Z,5.35
2019-01-18T14:53:03.352Z,5.43
2019-01-18T14:58:05.837Z,5.36
2019-01-18T15:03:08.288Z,5.32
2019-01-18T15:08:10.769Z,5.14
2019-01-18T15:13:13.248Z,5.13
2019-01-18T15:18:15.717Z,4.95
2019-01-18T15:23:18.180Z,4.95
2019-01-18T15:28:20.644Z,4.85
2019-01-18T15:33:23.108Z,4.62
2019-01-18T15:38:25.573Z,4.49
2019-01-18T15:43:28.063Z,4.35
2019-01-18T15:48:30.524Z,4.05
2019-01-18T15:53:32.996Z,3.90
2019-01-18T15:58:35.463Z,3.65
2019-01-18T16:03:37.922Z,3.54
2019-01-18T16:08:40.372Z,3.50
2019-01-18T16:13:42.972Z,3.22
2019-01-18T16:18:45.412Z,3.15
2019-01-18T16:23:47.888Z,2.89
2019-01-18T16:28:50.374Z,3.03
2019-01-18T16:33:52.822Z,2.95
2019-01-18T16:38:55.278Z,2.79
2019-01-18T16:43:57.900Z,2.48
2019-01-18T16:49:00.373Z,2.64
2019-01-18T16:54:02.901Z,2.48
2019-01-18T16:59:05.320Z,2.64
2019-01-18T17:04:07.795Z,2.61
2019-01-18T17:09:10.252Z,2.51
2019-01-18T17:14:12.753Z,2.38
2019-01-18T17:19:15.227Z,2.47
2019-01-18T17:24:17.698Z,2.24
2019-01-18T17:29:20.230Z,2.41
2019-01-18T17:34:22.628Z,2.42
2019-01-18T17:39:25.091Z,2.33
2019-01-18T17:44:27.570Z,2.29
2019-01-18T17:49:33.214Z,2.34
2019-01-18T17:54:35.702Z,2.27
2019-01-18T17:59:44.014Z,2.28
2019-01-18T18:05:01.597Z,2.18
2019-01-18T18:10:25.102Z,2.17
2019-01-18T18:15:33.267Z,2.32
2019-01-18T18:21:03.258Z,2.45
2019-01-18T18:26:08.183Z,2.45
2019-01-18T18:31:19.614Z,2.45
2019-01-18T18:36:40.118Z,2.52
2019-01-18T18:42:01.217Z,2.38
2019-01-18T18:47:18.698Z,2.25
2019-01-18T18:52:23.834Z,2.18
2019-01-18T18:57:51.080Z,2.02
2019-01-18T19:03:11.944Z,1.78
2019-01-18T19:08:29.416Z,1.70
2019-01-18T19:13:37.579Z,1.73
2019-01-18T19:19:01.664Z,1.88
2019-01-18T19:24:13.257Z,1.68
2019-01-18T19:29:21.325Z,1.50
2019-01-18T19:34:38.933Z,1.72
2019-01-18T19:39:50.491Z,1.47
2019-01-18T19:45:11.525Z,1.32
2019-01-18T19:50:47.936Z,1.33
2019-01-18T19:56:17.604Z,1.38
2019-01-18T20:01:34.981Z,1.46
2019-01-18T20:06:43.235Z,1.34
2019-01-18T20:11:57.453Z,1.38
2019-01-18T20:16:59.920Z,1.30
2019-01-18T20:22:14.667Z,1.15
2019-01-18T20:27:17.509Z,1.22
2019-01-18T20:32:22.315Z,1.17
2019-01-18T20:37:43.200Z,1.15
2019-01-18T20:42:48.443Z,1.27
2019-01-18T20:47:59.840Z,1.53
2019-01-18T20:53:20.930Z,1.56
2019-01-18T20:58:35.520Z,1.67
2019-01-18T21:03:59.572Z,1.74
2019-01-18T21:09:07.903Z,1.82
2019-01-18T21:14:16.415Z,1.89
2019-01-18T21:19:43.421Z,1.91
2019-01-18T21:24:51.642Z,1.99
2019-01-18T21:29:59.894Z,2.03
2019-01-18T21:35:17.331Z,2.04
2019-01-18T21:40:37.849Z,2.06
2019-01-18T21:46:04.987Z,2.06
2019-01-18T21:51:19.420Z,2.03
2019-01-18T21:56:24.773Z,2.03
2019-01-18T22:01:39.227Z,2.00
2019-01-18T22:07:00.437Z,1.97
2019-01-18T22:12:30.097Z,1.90
2019-01-18T22:17:44.358Z,1.89
2019-01-18T22:22:46.929Z,1.86
2019-01-18T22:27:58.341Z,1.82
2019-01-18T22:33:00.859Z,1.75
2019-01-18T22:38:06.160Z,1.69
2019-01-18T22:43:20.652Z,1.67
2019-01-18T22:48:47.402Z,1.60
2019-01-18T22:53:52.540Z,1.58
2019-01-18T22:59:16.262Z,1.53
2019-01-18T23:04:24.557Z,1.52
2019-01-18T23:09:38.805Z,1.53
2019-01-18T23:14:50.224Z,1.56
2019-01-18T23:19:55.630Z,1.49
2019-01-18T23:24:58.106Z,1.49
2019-01-18T23:30:09.313Z,1.44
2019-01-18T23:35:23.618Z,1.41
2019-01-18T23:40:56.958Z,1.39
2019-01-18T23:46:20.878Z,1.36
2019-01-18T23:51:44.405Z,1.36
2019-01-18T23:57:07.915Z,1.40
